Lancaster, PA

12:15 PM EST on March 05, 2015 (GMT -0500)
Paradise | Change Station
CLOSE
Current Station
Personal Weather Station
Location: Paradise, PA
Elevation: 365 ft
Nearby Weather Stations
Active Advisory: Winter Storm Warning Active Notice: Public Information Statement

Elev 365 ft 40.01 °N, 76.14 °W | Updated 13 minutes ago

Snow
Snow
21.9 °F
Feels Like 22 °F
N
0.0
Wind Variable Wind from North
Gusts 0.0 mph

Today
High -- | Low -- °F
--% Chance of Precip.
Yesterday
High -- | Low -- °F
Precip. -- in
6:32 AM 6:00 PM
Full, 100% visible
Pressure 30.18 in
Visibility 0.5 miles
Clouds
Windchill 22 °F
Dew Point 21 °F
Humidity 95%
Rainfall in
Snow Depth Not available.
UV Not available.
Pollen .60 out of 12
Air Quality Not available.
Flu Activity Not available.
SPECI KLNS 051704Z 01011KT 1/2SM SN FZFG VV010 M06/M08 A3018 RMK AO2 P0001 T10561078

More Conditions Fewer Conditions

Pressure 30.18 in
Visibility 0.5 miles
Clouds
Windchill 22 °F
Dew Point 21 °F
Humidity 95%
Rainfall in
Snow Depth Not available.
UV Not available.
Pollen .60 out of 12
Air Quality Not available.
Flu Activity Not available.
SPECI KLNS 051704Z 01011KT 1/2SM SN FZFG VV010 M06/M08 A3018 RMK AO2 P0001 T10561078

More Conditions Fewer Conditions

10-Day Weather Forecast

Almanac

Astronomy

Mar. 05, 2015 Rise Set
Actual Time
Civil Twilight
Nautical Twilight
Astronomical Twilight
Moon
Length of Visible Light
Length of Day
Tomorrow will be .
, % of the Moon is Illuminated

Today's Extremes

State Highs State Lows

Community

WunderPhotos

Upload Photos

1,802,866 photos uploaded!

WunderBlogs® & News

Nearby

Air Quality

  Air Quality AQ Index Pollutant
Not available.

Snow Depth

Station Depth Elevation

Earthquake Activity

City Distance Mag. Time & Date
Minimum magnitude displayed is 2.5.

Coastal Water Temperatures

Place Temperature

Nearby Weather Stations

Winter Storm Warning
Statement as of 9:19 AM EST on March 05, 2015

... Winter Storm Warning remains in effect until 4 PM EST this
afternoon...

* hazard types... snow.

* Accumulations... snow accumulation of 4 to 8 inches.

* Timing... snow... heavy at times will fall through this
morning... then taper off early this afternoon.

* Impacts... hazardous travel.

* Temperatures... in the lower 20s.

Precautionary/preparedness actions...

Dangerous winter weather conditions are expected or occurring.
Use extreme caution if traveling. For the latest weather
information... go to weather.Gov/statecollege or monitor NOAA
Weather Radio.

Report snow or ice accumulation to the National Weather Service
State College by sending an email to ctp.Stormreports@noaa.Gov...
posting to the NWS State College facebook Page... or tweet
@nwsstatecollege with the hashtag c... T... p... W... x.